Terminal Aerodrome Forecast
Issued by NWS

Home | Current Version | Previous Version | Text Only | Print | Product List | Glossary Off
Versions: 1 2 3 4 5 6 7 8 9 10 11 12 13 14 15 16 17 18 19

000
FTUS44 KTSA 211500 AAC
TAFBVO
TAF AMD
KBVO 211501Z 2115/2212 00000KT 4SM BR SCT040
     FM211600 13004KT P6SM SCT040
     FM220000 00000KT P6SM SCT040
     FM220600 00000KT 3SM BR SCT040=

USA.gov is the U.S. government's official web portal to all federal, state and local government web resources and services.